createdAt,value
2016-07-14T00:00:09.657Z,0
2016-07-14T00:01:09.663Z,0
2016-07-14T00:02:10.601Z,0
2016-07-14T00:03:09.685Z,0
2016-07-14T00:04:24.750Z,0
2016-07-14T00:05:09.692Z,0
2016-07-14T00:06:08.976Z,0
2016-07-14T00:07:10.617Z,0
2016-07-14T00:08:09.691Z,0
2016-07-14T00:09:10.466Z,0
2016-07-14T00:10:10.660Z,0
2016-07-14T00:11:11.433Z,0
2016-07-14T00:12:26.257Z,0
2016-07-14T00:13:10.565Z,0
2016-07-14T00:14:09.750Z,0
2016-07-14T00:15:09.758Z,0
2016-07-14T00:17:09.755Z,0
2016-07-14T00:18:09.066Z,0
2016-07-14T00:19:11.443Z,0
2016-07-14T00:20:09.796Z,0
2016-07-14T00:21:10.235Z,0
2016-07-14T00:22:10.515Z,0
2016-07-14T00:23:09.815Z,0
2016-07-14T00:24:10.027Z,0
2016-07-14T00:26:09.373Z,0
2016-07-14T00:27:09.833Z,0
2016-07-14T00:28:09.332Z,0
2016-07-14T00:29:10.043Z,0
2016-07-14T00:30:09.888Z,0
2016-07-14T00:31:10.054Z,0
2016-07-14T00:32:10.610Z,0
2016-07-14T00:33:10.074Z,0
2016-07-14T00:34:10.605Z,0
2016-07-14T00:35:24.767Z,0
2016-07-14T00:36:10.653Z,0
2016-07-14T00:37:10.634Z,0
2016-07-14T00:38:24.798Z,0
2016-07-14T00:39:10.652Z,0
2016-07-14T00:40:10.161Z,0
2016-07-14T00:41:10.629Z,0
2016-07-14T00:42:09.232Z,0
2016-07-14T00:43:10.673Z,0
2016-07-14T00:44:09.955Z,0
2016-07-14T00:45:24.838Z,0
2016-07-14T00:46:10.694Z,0
2016-07-14T00:47:10.699Z,0
2016-07-14T00:48:10.200Z,0
2016-07-14T00:49:09.982Z,0
2016-07-14T00:50:09.991Z,0
2016-07-14T00:51:09.466Z,0
2016-07-14T00:52:10.217Z,0
2016-07-14T00:53:10.948Z,0
2016-07-14T00:54:10.023Z,0
2016-07-14T00:55:25.080Z,0
2016-07-14T00:56:11.143Z,0
2016-07-14T00:57:10.247Z,0
2016-07-14T00:58:09.597Z,0
2016-07-14T00:59:10.247Z,0
2016-07-14T01:00:10.250Z,0
2016-07-14T01:01:10.052Z,0
2016-07-14T01:02:10.052Z,0
2016-07-14T01:03:09.344Z,0
2016-07-14T01:04:09.567Z,0
2016-07-14T01:05:24.643Z,0
2016-07-14T01:06:09.571Z,0
2016-07-14T01:07:10.093Z,0
2016-07-14T01:08:11.048Z,0
2016-07-14T01:09:09.402Z,0
2016-07-14T01:10:09.407Z,0
2016-07-14T01:11:09.416Z,0
2016-07-14T01:12:09.409Z,0
2016-07-14T01:13:10.337Z,0
2016-07-14T01:14:10.344Z,0
2016-07-14T01:15:10.367Z,0
2016-07-14T01:16:11.606Z,0
2016-07-14T01:17:10.158Z,0
2016-07-14T01:18:10.349Z,0
2016-07-14T01:19:10.900Z,0
2016-07-14T01:20:10.389Z,0
2016-07-14T01:21:10.915Z,0
2016-07-14T01:22:10.599Z,0
2016-07-14T01:23:10.919Z,0
2016-07-14T01:24:09.496Z,0
2016-07-14T01:25:10.424Z,0
2016-07-14T01:26:10.225Z,0
2016-07-14T01:27:10.973Z,0
2016-07-14T01:28:10.944Z,0
2016-07-14T01:29:10.245Z,0
2016-07-14T01:30:10.215Z,0
2016-07-14T01:31:10.431Z,0
2016-07-14T01:32:09.540Z,0
2016-07-14T01:33:10.162Z,0
2016-07-14T01:34:10.957Z,0
2016-07-14T01:35:24.612Z,0
2016-07-14T01:36:10.272Z,0
2016-07-14T01:37:09.547Z,0
2016-07-14T01:38:11.186Z,0
2016-07-14T01:39:10.497Z,0
2016-07-14T01:40:11.095Z,0
2016-07-14T01:41:11.255Z,0
2016-07-14T01:42:11.913Z,0
2016-07-14T01:43:11.238Z,0
2016-07-14T01:44:09.594Z,0
2016-07-14T01:45:11.034Z,0
2016-07-14T01:46:11.287Z,0
2016-07-14T01:47:10.515Z,0
2016-07-14T01:48:09.619Z,0
2016-07-14T01:49:11.269Z,0
2016-07-14T01:50:10.383Z,0
2016-07-14T01:51:11.068Z,0
2016-07-14T01:52:25.410Z,0
2016-07-14T01:53:10.608Z,0
2016-07-14T01:54:11.088Z,0
2016-07-14T01:55:11.131Z,0
2016-07-14T01:56:10.365Z,0
2016-07-14T01:57:09.695Z,0
2016-07-14T01:58:10.832Z,0
2016-07-14T01:59:25.287Z,0
2016-07-14T02:00:11.365Z,0
2016-07-14T02:01:10.621Z,0
2016-07-14T02:02:24.776Z,0
2016-07-14T02:03:10.425Z,0
2016-07-14T02:04:10.643Z,0
2016-07-14T02:05:09.712Z,0
2016-07-14T02:06:11.364Z,0
2016-07-14T02:07:24.593Z,0
2016-07-14T02:08:09.769Z,0
2016-07-14T02:09:10.456Z,0
2016-07-14T02:10:10.879Z,0
2016-07-14T02:11:09.781Z,0
2016-07-14T02:12:11.415Z,0
2016-07-14T02:13:10.461Z,0
2016-07-14T02:14:09.766Z,0
2016-07-14T02:15:10.492Z,0
2016-07-14T02:16:09.806Z,0
2016-07-14T02:17:10.718Z,0
2016-07-14T02:18:11.241Z,0
2016-07-14T02:19:12.164Z,0
2016-07-14T02:20:09.805Z,0
2016-07-14T02:21:09.807Z,0
2016-07-14T02:22:10.575Z,0
2016-07-14T02:23:10.567Z,0
2016-07-14T02:24:09.838Z,0
2016-07-14T02:25:10.555Z,0
2016-07-14T02:26:25.454Z,0
2016-07-14T02:27:10.055Z,0
2016-07-14T02:28:10.104Z,0
2016-07-14T02:29:10.571Z,0
2016-07-14T02:30:10.598Z,0
2016-07-14T02:31:10.788Z,0
2016-07-14T02:32:25.673Z,0
2016-07-14T02:33:24.757Z,0
2016-07-14T02:34:25.496Z,0
2016-07-14T02:35:11.349Z,0
2016-07-14T02:36:10.627Z,0
2016-07-14T02:37:09.903Z,0
2016-07-14T02:38:10.657Z,0
2016-07-14T02:39:10.864Z,0
2016-07-14T02:40:09.958Z,0
2016-07-14T02:41:09.936Z,0
2016-07-14T02:42:09.955Z,0
2016-07-14T02:43:11.411Z,0
2016-07-14T02:44:11.386Z,0
2016-07-14T02:45:09.966Z,0
2016-07-14T02:46:09.965Z,0
2016-07-14T02:47:10.687Z,0
2016-07-14T02:48:11.163Z,0
2016-07-14T02:49:27.392Z,0
2016-07-14T02:50:10.724Z,0
2016-07-14T02:51:10.202Z,0
2016-07-14T02:52:11.442Z,0
2016-07-14T02:53:11.645Z,0
2016-07-14T02:54:10.737Z,0
2016-07-14T02:55:10.221Z,0
2016-07-14T02:56:12.186Z,0
2016-07-14T02:58:10.788Z,0
2016-07-14T02:59:11.484Z,0
2016-07-14T03:00:10.776Z,0
2016-07-14T03:01:11.485Z,0
2016-07-14T03:02:11.518Z,0
2016-07-14T03:03:11.524Z,0
2016-07-14T03:04:11.248Z,0
2016-07-14T03:05:12.257Z,0
2016-07-14T03:06:11.542Z,0
2016-07-14T03:07:10.818Z,0
2016-07-14T03:08:11.236Z,0
2016-07-14T03:09:11.025Z,0
2016-07-14T03:10:24.982Z,0
2016-07-14T03:11:11.804Z,0
2016-07-14T03:12:10.135Z,0
2016-07-14T03:13:10.158Z,0
2016-07-14T03:14:10.873Z,0
2016-07-14T03:15:10.343Z,0
2016-07-14T03:16:10.166Z,0
2016-07-14T03:17:10.159Z,0
2016-07-14T03:19:10.463Z,0
2016-07-14T03:20:10.898Z,0
2016-07-14T03:21:10.179Z,0
2016-07-14T03:22:10.921Z,0
2016-07-14T03:23:10.920Z,0
2016-07-14T03:24:12.384Z,0
2016-07-14T03:25:10.206Z,0
2016-07-14T03:26:11.137Z,0
2016-07-14T03:27:10.953Z,0
2016-07-14T03:28:10.969Z,0
2016-07-14T03:29:10.953Z,0
2016-07-14T03:30:11.343Z,0
2016-07-14T03:31:12.118Z,0
2016-07-14T03:33:11.218Z,0
2016-07-14T03:34:11.433Z,0
2016-07-14T03:35:11.020Z,0
2016-07-14T03:36:12.458Z,0
2016-07-14T03:38:12.890Z,0
2016-07-14T03:39:11.010Z,0
2016-07-14T03:40:10.285Z,0
2016-07-14T03:41:11.424Z,0
2016-07-14T03:42:25.893Z,0
2016-07-14T03:43:25.173Z,0
2016-07-14T03:44:11.056Z,0
2016-07-14T03:45:11.963Z,5
2016-07-14T03:46:10.536Z,5
2016-07-14T03:47:10.339Z,5
2016-07-14T03:48:11.060Z,5
2016-07-14T03:49:10.961Z,10
2016-07-14T03:50:11.796Z,10
2016-07-14T03:51:11.269Z,10
2016-07-14T03:52:11.080Z,10
2016-07-14T03:53:11.114Z,10
2016-07-14T03:54:11.095Z,10
2016-07-14T03:55:12.013Z,10
2016-07-14T03:56:25.260Z,10
2016-07-14T03:57:11.836Z,10
2016-07-14T03:58:12.561Z,15
2016-07-14T03:59:12.553Z,15
2016-07-14T04:00:10.407Z,15
2016-07-14T04:01:11.359Z,25
2016-07-14T04:02:11.159Z,25
2016-07-14T04:03:10.439Z,30
2016-07-14T04:04:11.169Z,30
2016-07-14T04:05:10.443Z,30
2016-07-14T04:07:10.465Z,25
2016-07-14T04:08:10.706Z,25
2016-07-14T04:09:26.977Z,20
2016-07-14T04:10:25.735Z,15
2016-07-14T04:11:11.930Z,20
2016-07-14T04:12:11.230Z,20
2016-07-14T04:13:10.520Z,20
2016-07-14T04:14:11.245Z,15
2016-07-14T04:15:26.290Z,15
2016-07-14T04:16:11.219Z,15
2016-07-14T04:17:10.538Z,15
2016-07-14T04:18:10.516Z,15
2016-07-14T04:19:10.525Z,15
2016-07-14T04:20:11.254Z,20
2016-07-14T04:21:11.257Z,15
2016-07-14T04:22:10.562Z,15
2016-07-14T04:23:11.485Z,15
2016-07-14T04:24:11.673Z,15
2016-07-14T04:25:11.679Z,25
2016-07-14T04:26:12.198Z,15
2016-07-14T04:27:12.027Z,15
2016-07-14T04:28:11.312Z,20
2016-07-14T04:29:11.319Z,20
2016-07-14T04:30:12.047Z,15
2016-07-14T04:31:11.356Z,20
2016-07-14T04:32:11.547Z,15
2016-07-14T04:33:10.617Z,15
2016-07-14T04:34:10.624Z,15
2016-07-14T04:35:11.360Z,10
2016-07-14T04:36:10.643Z,15
2016-07-14T04:37:11.342Z,15
2016-07-14T04:38:12.094Z,15
2016-07-14T04:39:12.096Z,15
2016-07-14T04:40:12.068Z,15
2016-07-14T04:41:10.659Z,15
2016-07-14T04:42:11.375Z,15
2016-07-14T04:43:25.737Z,10
2016-07-14T04:44:12.333Z,10
2016-07-14T04:45:10.678Z,5
2016-07-14T04:46:10.674Z,5
2016-07-14T04:47:11.401Z,10
2016-07-14T04:48:12.157Z,10
2016-07-14T04:49:11.408Z,15
2016-07-14T04:50:11.430Z,15
2016-07-14T04:51:11.435Z,20
2016-07-14T04:52:11.426Z,15
2016-07-14T04:53:11.622Z,10
2016-07-14T04:54:11.454Z,10
2016-07-14T04:55:10.732Z,25
2016-07-14T04:56:11.468Z,25
2016-07-14T04:57:11.750Z,25
2016-07-14T04:58:12.596Z,20
2016-07-14T05:00:10.754Z,10
2016-07-14T05:01:26.347Z,15
2016-07-14T05:02:12.007Z,10
2016-07-14T05:03:11.496Z,10
2016-07-14T05:04:11.002Z,10
2016-07-14T05:05:10.813Z,10
2016-07-14T05:06:11.011Z,10
2016-07-14T05:07:11.195Z,10
2016-07-14T05:08:10.833Z,10
2016-07-14T05:09:12.148Z,10
2016-07-14T05:10:11.731Z,10
2016-07-14T05:11:11.397Z,10
2016-07-14T05:12:11.737Z,10
2016-07-14T05:13:10.848Z,10
2016-07-14T05:14:11.564Z,15
2016-07-14T05:15:11.572Z,15
2016-07-14T05:16:10.841Z,15
2016-07-14T05:17:12.320Z,10
2016-07-14T05:18:11.813Z,20
2016-07-14T05:19:12.528Z,25
2016-07-14T05:20:11.789Z,25
2016-07-14T05:21:12.327Z,30
2016-07-14T05:22:12.341Z,30
2016-07-14T05:23:11.834Z,30
2016-07-14T05:24:11.798Z,35
2016-07-14T05:25:12.006Z,35
2016-07-14T05:26:12.771Z,35
2016-07-14T05:27:12.430Z,40
2016-07-14T05:28:12.341Z,25
2016-07-14T05:29:11.638Z,30
2016-07-14T05:30:11.672Z,20
2016-07-14T05:31:11.855Z,25
2016-07-14T05:32:11.724Z,25
2016-07-14T05:33:13.134Z,25
2016-07-14T05:34:12.420Z,25
2016-07-14T05:35:11.890Z,35
2016-07-14T05:36:11.868Z,30
2016-07-14T05:37:10.952Z,40
2016-07-14T05:38:11.917Z,35
2016-07-14T05:39:12.101Z,40
2016-07-14T05:40:26.036Z,35
2016-07-14T05:41:12.040Z,35
2016-07-14T05:42:11.190Z,35
2016-07-14T05:43:11.891Z,30
2016-07-14T05:44:11.918Z,30
2016-07-14T05:45:11.411Z,25
2016-07-14T05:46:11.734Z,30
2016-07-14T05:47:12.661Z,30
2016-07-14T05:48:11.012Z,30
2016-07-14T05:49:12.257Z,35
2016-07-14T05:51:11.045Z,25
2016-07-14T05:52:11.041Z,25
2016-07-14T05:53:11.037Z,15
2016-07-14T05:54:11.045Z,15
2016-07-14T05:55:11.758Z,25
2016-07-14T05:56:11.071Z,35
2016-07-14T05:57:11.070Z,25
2016-07-14T05:58:11.271Z,25
2016-07-14T06:00:12.203Z,35
2016-07-14T06:01:12.048Z,40
2016-07-14T06:02:11.808Z,40
2016-07-14T06:03:11.838Z,30
2016-07-14T06:04:12.597Z,25
2016-07-14T06:05:11.111Z,15
2016-07-14T06:06:12.042Z,15
2016-07-14T06:07:11.871Z,15
2016-07-14T06:08:11.335Z,15
2016-07-14T06:09:11.837Z,25
2016-07-14T06:10:13.208Z,25
2016-07-14T06:11:12.358Z,25
2016-07-14T06:12:27.170Z,30
2016-07-14T06:13:11.348Z,25
2016-07-14T06:14:11.355Z,30
2016-07-14T06:15:11.172Z,45
2016-07-14T06:16:12.119Z,35
2016-07-14T06:17:12.136Z,35
2016-07-14T06:18:11.201Z,25
2016-07-14T06:19:12.837Z,20
2016-07-14T06:20:11.910Z,15
2016-07-14T06:22:12.827Z,35
2016-07-14T06:23:11.410Z,35
2016-07-14T06:24:11.441Z,40
2016-07-14T06:25:11.431Z,50
2016-07-14T06:26:11.953Z,40
2016-07-14T06:27:11.219Z,80
2016-07-14T06:28:12.867Z,90
2016-07-14T06:29:11.715Z,65
2016-07-14T06:30:11.248Z,50
2016-07-14T06:31:11.250Z,30
2016-07-14T06:32:11.257Z,20
2016-07-14T06:33:11.961Z,25
2016-07-14T06:34:11.986Z,30
2016-07-14T06:35:12.958Z,55
2016-07-14T06:36:12.698Z,80
2016-07-14T06:37:12.198Z,70
2016-07-14T06:38:13.426Z,110
2016-07-14T06:39:12.247Z,80
2016-07-14T06:40:11.304Z,80
2016-07-14T06:41:13.946Z,90
2016-07-14T06:42:12.431Z,75
2016-07-14T06:43:11.504Z,75
2016-07-14T06:44:11.525Z,60
2016-07-14T06:45:26.891Z,80
2016-07-14T06:46:11.322Z,65
2016-07-14T06:47:12.032Z,50
2016-07-14T06:48:27.566Z,40
2016-07-14T06:49:12.519Z,40
2016-07-14T06:50:12.045Z,70
2016-07-14T06:51:12.073Z,85
2016-07-14T06:52:12.082Z,95
2016-07-14T06:53:12.083Z,85
2016-07-14T06:54:12.088Z,85
2016-07-14T06:55:12.817Z,85
2016-07-14T06:56:13.026Z,85
2016-07-14T06:57:12.131Z,95
2016-07-14T06:58:12.856Z,55
2016-07-14T06:59:11.382Z,65
2016-07-14T07:00:12.843Z,45
2016-07-14T07:01:28.628Z,45
2016-07-14T07:02:11.403Z,45
2016-07-14T07:03:12.123Z,45
2016-07-14T07:04:12.152Z,55
2016-07-14T07:05:13.059Z,65
2016-07-14T07:06:12.199Z,60
2016-07-14T07:07:12.152Z,85
2016-07-14T07:08:12.188Z,65
2016-07-14T07:09:12.920Z,35
2016-07-14T07:10:13.654Z,35
2016-07-14T07:11:12.379Z,45
2016-07-14T07:12:12.905Z,45
2016-07-14T07:13:12.199Z,35
2016-07-14T07:14:11.710Z,35
2016-07-14T07:15:12.204Z,40
2016-07-14T07:16:26.343Z,35
2016-07-14T07:17:12.417Z,40
2016-07-14T07:18:11.689Z,50
2016-07-14T07:19:12.196Z,55
2016-07-14T07:20:12.197Z,60
2016-07-14T07:21:12.966Z,65
2016-07-14T07:22:12.229Z,55
2016-07-14T07:23:12.440Z,50
2016-07-14T07:24:11.722Z,50
2016-07-14T07:25:12.999Z,50
2016-07-14T07:26:12.448Z,55
2016-07-14T07:27:27.690Z,55
2016-07-14T07:28:11.526Z,55
2016-07-14T07:29:13.164Z,95
2016-07-14T07:30:12.990Z,135
2016-07-14T07:31:12.255Z,145
2016-07-14T07:32:13.195Z,160
2016-07-14T07:33:12.263Z,115
2016-07-14T07:34:12.502Z,115
2016-07-14T07:35:12.317Z,90
2016-07-14T07:36:12.688Z,95
2016-07-14T07:37:27.384Z,90
2016-07-14T07:38:11.593Z,75
2016-07-14T07:39:13.041Z,80
2016-07-14T07:40:12.302Z,70
2016-07-14T07:41:13.550Z,65
2016-07-14T07:42:11.665Z,35
2016-07-14T07:43:11.605Z,30
2016-07-14T07:44:12.336Z,45
2016-07-14T07:45:13.546Z,50
2016-07-14T07:46:13.097Z,50
2016-07-14T07:47:12.506Z,55
2016-07-14T07:48:11.656Z,35
2016-07-14T07:49:12.592Z,35
2016-07-14T07:50:13.713Z,55
2016-07-14T07:51:26.511Z,65
2016-07-14T07:52:13.112Z,65
2016-07-14T07:53:13.131Z,60
2016-07-14T07:54:12.067Z,60
2016-07-14T07:55:12.097Z,50
2016-07-14T07:56:26.550Z,55
2016-07-14T07:57:12.621Z,75
2016-07-14T07:58:11.899Z,105
2016-07-14T07:59:11.716Z,85
2016-07-14T08:00:12.435Z,90
2016-07-14T08:01:13.329Z,60
2016-07-14T08:03:11.718Z,40
2016-07-14T08:04:12.464Z,45
2016-07-14T08:05:12.442Z,50
2016-07-14T08:06:14.171Z,55
2016-07-14T08:07:12.671Z,65
2016-07-14T08:08:12.494Z,75
2016-07-14T08:09:12.710Z,70
2016-07-14T08:10:12.000Z,50
2016-07-14T08:11:13.348Z,40
2016-07-14T08:12:12.574Z,25
2016-07-14T08:13:13.194Z,20
2016-07-14T08:14:13.257Z,35
2016-07-14T08:15:12.180Z,30
2016-07-14T08:16:11.988Z,45
2016-07-14T08:17:26.645Z,85
2016-07-14T08:18:14.357Z,85
2016-07-14T08:19:11.790Z,140
2016-07-14T08:20:12.065Z,140
2016-07-14T08:21:12.731Z,185
2016-07-14T08:22:12.515Z,180
2016-07-14T08:23:11.854Z,150
2016-07-14T08:24:12.011Z,180
2016-07-14T08:25:41.541Z,185
2016-07-14T08:26:26.698Z,180
2016-07-14T08:27:12.060Z,185
2016-07-14T08:28:11.841Z,170
2016-07-14T08:29:12.581Z,125
2016-07-14T08:30:13.312Z,65
2016-07-14T08:31:12.561Z,65
2016-07-14T08:32:12.824Z,50
2016-07-14T08:33:12.590Z,50
2016-07-14T08:34:11.870Z,55
2016-07-14T08:35:12.587Z,50
2016-07-14T08:36:12.606Z,40
2016-07-14T08:37:12.614Z,45
2016-07-14T08:38:13.221Z,45
2016-07-14T08:39:12.105Z,35
2016-07-14T08:40:12.610Z,30
2016-07-14T08:41:13.585Z,50
2016-07-14T08:42:27.494Z,90
2016-07-14T08:43:13.381Z,105
2016-07-14T08:44:11.984Z,125
2016-07-14T08:45:13.398Z,115
2016-07-14T08:46:12.664Z,120
2016-07-14T08:47:12.654Z,120
2016-07-14T08:48:11.943Z,115
2016-07-14T08:49:12.666Z,105
2016-07-14T08:50:11.956Z,80
2016-07-14T08:51:12.719Z,60
2016-07-14T08:52:11.977Z,40
2016-07-14T08:53:13.419Z,40
2016-07-14T08:54:27.227Z,35
2016-07-14T08:55:27.785Z,85
2016-07-14T08:56:11.985Z,70
2016-07-14T08:57:12.001Z,80
2016-07-14T08:58:27.590Z,100
2016-07-14T08:59:12.229Z,90
2016-07-14T09:00:26.859Z,145
2016-07-14T09:01:12.725Z,100
2016-07-14T09:02:13.474Z,85
2016-07-14T09:03:26.890Z,145
2016-07-14T09:04:12.752Z,80
2016-07-14T09:05:12.750Z,90
2016-07-14T09:06:13.693Z,60
2016-07-14T09:07:12.750Z,75
2016-07-14T09:08:13.522Z,75
2016-07-14T09:09:12.040Z,55
2016-07-14T09:10:12.260Z,65
2016-07-14T09:11:12.791Z,45
2016-07-14T09:12:12.810Z,40
2016-07-14T09:13:13.494Z,45
2016-07-14T09:14:13.719Z,50
2016-07-14T09:15:12.792Z,75
2016-07-14T09:16:12.097Z,70
2016-07-14T09:17:12.093Z,90
2016-07-14T09:18:12.113Z,90
2016-07-14T09:19:12.820Z,75
2016-07-14T09:20:12.138Z,50
2016-07-14T09:21:13.044Z,65
2016-07-14T09:22:12.346Z,65
2016-07-14T09:23:12.339Z,95
2016-07-14T09:24:27.717Z,90
2016-07-14T09:25:12.137Z,90
2016-07-14T09:26:12.159Z,90
2016-07-14T09:27:12.903Z,70
2016-07-14T09:28:13.615Z,70
2016-07-14T09:29:27.020Z,60
2016-07-14T09:30:12.940Z,75
2016-07-14T09:32:12.887Z,120
2016-07-14T09:33:13.135Z,160
2016-07-14T09:34:12.379Z,140
2016-07-14T09:35:13.609Z,135
2016-07-14T09:36:14.028Z,110
2016-07-14T09:38:12.932Z,100
2016-07-14T09:39:14.976Z,115
2016-07-14T09:40:13.654Z,120
2016-07-14T09:41:12.981Z,145
2016-07-14T09:42:12.259Z,190
2016-07-14T09:43:13.750Z,200
2016-07-14T09:44:12.444Z,220
2016-07-14T09:45:13.219Z,170
2016-07-14T09:46:12.456Z,250
2016-07-14T09:47:12.256Z,150
2016-07-14T09:48:12.972Z,145
2016-07-14T09:49:12.268Z,250
2016-07-14T09:50:12.263Z,200
2016-07-14T09:51:13.200Z,225
2016-07-14T09:52:14.453Z,190
2016-07-14T09:53:12.618Z,255
2016-07-14T09:54:13.634Z,165
2016-07-14T09:55:13.498Z,160
2016-07-14T09:56:28.220Z,235
2016-07-14T09:57:12.922Z,155
2016-07-14T09:58:13.015Z,225
2016-07-14T09:59:12.690Z,180
2016-07-14T10:00:13.618Z,205
2016-07-14T10:01:13.577Z,245
2016-07-14T10:02:27.382Z,235
2016-07-14T10:03:12.638Z,230
2016-07-14T10:04:13.645Z,210
2016-07-14T10:05:12.751Z,190
2016-07-14T10:06:14.708Z,205
2016-07-14T10:07:12.697Z,240
2016-07-14T10:09:14.926Z,230
2016-07-14T10:10:13.552Z,165
2016-07-14T10:11:15.069Z,225
2016-07-14T10:12:27.661Z,175
2016-07-14T10:13:12.702Z,175
2016-07-14T10:14:13.888Z,275
2016-07-14T10:15:14.999Z,230
2016-07-14T10:16:12.890Z,275
2016-07-14T10:17:15.334Z,265
2016-07-14T10:19:28.093Z,295
2016-07-14T10:20:12.918Z,255
2016-07-14T10:21:13.757Z,230
2016-07-14T10:22:13.556Z,185
2016-07-14T10:24:15.114Z,170
2016-07-14T10:25:12.962Z,205
2016-07-14T10:26:14.175Z,195
2016-07-14T10:27:28.297Z,190
2016-07-14T10:28:15.250Z,190
2016-07-14T10:29:15.032Z,180
2016-07-14T10:30:14.665Z,130
2016-07-14T10:31:12.877Z,120
2016-07-14T10:32:13.941Z,175
2016-07-14T10:33:13.488Z,205
2016-07-14T10:34:14.074Z,220
2016-07-14T10:35:12.678Z,230
2016-07-14T10:36:13.691Z,245
2016-07-14T10:37:13.419Z,220
2016-07-14T10:38:12.850Z,240
2016-07-14T10:39:14.334Z,220
2016-07-14T10:40:13.599Z,180
2016-07-14T10:41:13.275Z,165
2016-07-14T10:42:13.620Z,220
2016-07-14T10:43:13.099Z,235
2016-07-14T10:44:13.379Z,230
2016-07-14T10:45:14.000Z,230
2016-07-14T10:46:13.074Z,225
2016-07-14T10:47:14.077Z,245
2016-07-14T10:48:13.868Z,220
2016-07-14T10:49:14.349Z,210
2016-07-14T10:50:14.737Z,250
2016-07-14T10:51:14.032Z,225
2016-07-14T10:52:14.653Z,220
2016-07-14T10:53:12.878Z,215
2016-07-14T10:54:13.793Z,180
2016-07-14T10:55:27.741Z,235
2016-07-14T10:56:13.751Z,270
2016-07-14T10:58:13.613Z,190
2016-07-14T10:59:13.807Z,235
2016-07-14T11:00:14.050Z,245
2016-07-14T11:01:14.692Z,290
2016-07-14T11:03:14.581Z,270
2016-07-14T11:04:28.284Z,260
2016-07-14T11:05:14.330Z,315
2016-07-14T11:06:15.900Z,260
2016-07-14T11:07:13.795Z,220
2016-07-14T11:08:14.910Z,230
2016-07-14T11:09:15.597Z,215
2016-07-14T11:10:14.157Z,210
2016-07-14T11:11:13.068Z,205
2016-07-14T11:12:14.153Z,280
2016-07-14T11:13:16.011Z,265
2016-07-14T11:14:29.141Z,210
2016-07-14T11:15:14.025Z,205
2016-07-14T11:16:14.255Z,235
2016-07-14T11:17:14.733Z,240
2016-07-14T11:18:14.762Z,230
2016-07-14T11:19:28.058Z,275
2016-07-14T11:20:14.336Z,370
2016-07-14T11:21:13.039Z,305
2016-07-14T11:22:13.134Z,290
2016-07-14T11:23:15.137Z,225
2016-07-14T11:24:15.069Z,210
2016-07-14T11:25:13.230Z,220
2016-07-14T11:26:14.119Z,255
2016-07-14T11:27:14.330Z,235
2016-07-14T11:28:13.448Z,255
2016-07-14T11:29:14.190Z,130
2016-07-14T11:30:14.623Z,165
2016-07-14T11:32:13.315Z,140
2016-07-14T11:33:28.246Z,250
2016-07-14T11:34:13.209Z,345
2016-07-14T11:35:14.212Z,395
2016-07-14T11:36:15.233Z,280
2016-07-14T11:37:13.423Z,130
2016-07-14T11:38:28.697Z,145
2016-07-14T11:39:16.009Z,150
2016-07-14T11:40:14.204Z,245
2016-07-14T11:41:16.177Z,195
2016-07-14T11:42:13.893Z,210
2016-07-14T11:43:13.254Z,250
2016-07-14T11:44:13.706Z,285
2016-07-14T11:45:15.815Z,315
2016-07-14T11:46:13.545Z,200
2016-07-14T11:47:14.186Z,215
2016-07-14T11:48:14.119Z,235
2016-07-14T11:49:15.254Z,260
2016-07-14T11:50:14.438Z,305
2016-07-14T11:51:14.007Z,290
2016-07-14T11:52:15.268Z,235
2016-07-14T11:53:14.119Z,310
2016-07-14T11:54:13.744Z,370
2016-07-14T11:55:15.039Z,335
2016-07-14T11:56:14.548Z,375
2016-07-14T11:57:14.950Z,260
2016-07-14T11:58:14.583Z,195
2016-07-14T11:59:13.510Z,170
2016-07-14T12:00:13.516Z,230
2016-07-14T12:01:13.729Z,235
2016-07-14T12:02:13.451Z,250
2016-07-14T12:03:13.485Z,275
2016-07-14T12:04:14.952Z,280
2016-07-14T12:05:13.598Z,240
2016-07-14T12:06:13.450Z,215
2016-07-14T12:08:14.799Z,380
2016-07-14T12:09:13.448Z,350
2016-07-14T12:10:13.538Z,325
2016-07-14T12:11:28.880Z,305
2016-07-14T12:12:13.581Z,270
2016-07-14T12:13:29.781Z,210
2016-07-14T12:14:16.043Z,295
2016-07-14T12:15:14.227Z,245
2016-07-14T12:16:14.212Z,270
2016-07-14T12:17:13.418Z,255
2016-07-14T12:18:14.093Z,175
2016-07-14T12:19:13.540Z,180
2016-07-14T12:20:15.065Z,155
2016-07-14T12:21:28.619Z,210
2016-07-14T12:22:14.633Z,170
2016-07-14T12:23:13.387Z,305
2016-07-14T12:24:14.455Z,255
2016-07-14T12:25:14.583Z,345
2016-07-14T12:26:14.409Z,355
2016-07-14T12:27:15.393Z,355
2016-07-14T12:28:14.412Z,305
2016-07-14T12:29:28.466Z,395
2016-07-14T12:30:14.468Z,365
2016-07-14T12:31:15.169Z,330
2016-07-14T12:32:15.404Z,365
2016-07-14T12:33:14.340Z,355
2016-07-14T12:34:15.892Z,390
2016-07-14T12:35:13.554Z,380
2016-07-14T12:36:14.303Z,360
2016-07-14T12:37:15.259Z,370
2016-07-14T12:38:14.387Z,345
2016-07-14T12:39:16.031Z,240
2016-07-14T12:40:13.724Z,190
2016-07-14T12:41:30.131Z,220
2016-07-14T12:42:15.424Z,150
2016-07-14T12:43:29.081Z,215
2016-07-14T12:44:29.629Z,325
2016-07-14T12:45:28.400Z,300
2016-07-14T12:46:14.298Z,220
2016-07-14T12:47:13.840Z,255
2016-07-14T12:48:13.528Z,265
2016-07-14T12:49:29.310Z,310
2016-07-14T12:50:30.407Z,300
2016-07-14T12:51:13.548Z,280
2016-07-14T12:52:29.235Z,310
2016-07-14T12:53:30.408Z,250
2016-07-14T12:54:15.093Z,320
2016-07-14T12:55:13.891Z,335
2016-07-14T12:56:13.892Z,370
2016-07-14T12:57:14.431Z,410
2016-07-14T12:58:14.324Z,415
2016-07-14T13:00:15.757Z,405
2016-07-14T13:01:15.381Z,390
2016-07-14T13:02:14.540Z,330
2016-07-14T13:03:14.991Z,300
2016-07-14T13:04:15.695Z,295
2016-07-14T13:05:15.433Z,225
2016-07-14T13:06:13.840Z,155
2016-07-14T13:07:13.688Z,95
2016-07-14T13:08:28.678Z,40
2016-07-14T13:09:14.494Z,45
2016-07-14T13:10:15.058Z,45
2016-07-14T13:11:13.624Z,35
2016-07-14T13:12:14.377Z,35
2016-07-14T13:13:15.202Z,50
2016-07-14T13:14:14.908Z,160
2016-07-14T13:15:14.506Z,255
2016-07-14T13:16:14.626Z,200
2016-07-14T13:17:44.379Z,175
2016-07-14T13:18:14.414Z,220
2016-07-14T13:19:13.674Z,315
2016-07-14T13:20:14.188Z,215
2016-07-14T13:21:14.730Z,170
2016-07-14T13:22:13.614Z,205
2016-07-14T13:23:13.858Z,310
2016-07-14T13:24:14.546Z,515
2016-07-14T13:25:14.812Z,480
2016-07-14T13:27:16.033Z,280
2016-07-14T13:28:13.571Z,300
2016-07-14T13:29:15.020Z,440
2016-07-14T13:30:14.715Z,345
2016-07-14T13:31:13.959Z,230
2016-07-14T13:32:13.975Z,270
2016-07-14T13:33:14.530Z,410
2016-07-14T13:34:16.599Z,365
2016-07-14T13:35:14.047Z,380
2016-07-14T13:36:14.982Z,275
2016-07-14T13:37:15.363Z,155
2016-07-14T13:38:13.824Z,130
2016-07-14T13:39:16.517Z,175
2016-07-14T13:40:28.709Z,185
2016-07-14T13:41:14.744Z,295
2016-07-14T13:42:13.821Z,340
2016-07-14T13:43:14.031Z,300
2016-07-14T13:44:14.734Z,245
2016-07-14T13:45:15.523Z,320
2016-07-14T13:46:14.848Z,325
2016-07-14T13:47:15.892Z,360
2016-07-14T13:48:14.709Z,295
2016-07-14T13:49:14.098Z,305
2016-07-14T13:50:14.422Z,345
2016-07-14T13:51:14.513Z,385
2016-07-14T13:52:14.630Z,380
2016-07-14T13:53:13.909Z,385
2016-07-14T13:54:29.489Z,380
2016-07-14T13:55:14.444Z,375
2016-07-14T13:56:15.692Z,370
2016-07-14T13:57:15.388Z,370
2016-07-14T13:58:13.747Z,370
2016-07-14T13:59:15.799Z,360
2016-07-14T14:00:14.717Z,350
2016-07-14T14:01:13.764Z,345
2016-07-14T14:02:14.517Z,345
2016-07-14T14:03:15.216Z,340
2016-07-14T14:04:13.882Z,340
2016-07-14T14:05:15.641Z,335
2016-07-14T14:06:13.796Z,335
2016-07-14T14:07:13.858Z,345
2016-07-14T14:08:14.862Z,350
2016-07-14T14:09:14.018Z,350
2016-07-14T14:10:15.268Z,350
2016-07-14T14:11:16.812Z,350
2016-07-14T14:12:14.557Z,350
2016-07-14T14:13:14.189Z,355
2016-07-14T14:14:14.826Z,350
2016-07-14T14:15:17.062Z,350
2016-07-14T14:16:14.072Z,350
2016-07-14T14:17:14.637Z,345
2016-07-14T14:18:14.097Z,345
2016-07-14T14:19:14.233Z,345
2016-07-14T14:20:14.924Z,345
2016-07-14T14:21:14.243Z,345
2016-07-14T14:22:15.642Z,345
2016-07-14T14:23:14.148Z,340
2016-07-14T14:24:15.979Z,340
2016-07-14T14:25:29.752Z,340
2016-07-14T14:26:14.414Z,345
2016-07-14T14:27:15.840Z,340
2016-07-14T14:28:14.909Z,340
2016-07-14T14:29:15.038Z,345
2016-07-14T14:30:14.308Z,350
2016-07-14T14:31:15.098Z,350
2016-07-14T14:32:14.138Z,355
2016-07-14T14:33:16.598Z,365
2016-07-14T14:34:29.048Z,370
2016-07-14T14:36:15.875Z,375